createdAt,value
2019-01-03T00:01:46.048Z,2.80
2019-01-03T00:04:51.420Z,2.75
2019-01-03T00:07:50.979Z,3.42
2019-01-03T00:10:41.676Z,3.40
2019-01-03T00:13:41.596Z,3.33
2019-01-03T00:16:36.483Z,2.80
2019-01-03T00:19:36.345Z,3.37
2019-01-03T00:22:35.762Z,3.00
2019-01-03T00:25:35.222Z,3.22
2019-01-03T00:28:26.923Z,4.03
2019-01-03T00:31:30.436Z,3.25
2019-01-03T00:34:29.960Z,2.92
2019-01-03T00:37:29.376Z,3.05
2019-01-03T00:40:28.937Z,3.58
2019-01-03T00:43:28.454Z,3.10
2019-01-03T00:46:09.212Z,3.30
2019-01-03T00:51:51.490Z,3.20
2019-01-03T00:54:50.644Z,3.20
2019-01-03T00:57:50.751Z,2.80
2019-01-03T01:00:50.839Z,2.98
2019-01-03T01:03:53.960Z,3.27
2019-01-03T01:06:47.976Z,3.30
2019-01-03T01:09:47.920Z,3.20
2019-01-03T01:12:47.532Z,3.65
2019-01-03T01:15:47.708Z,3.75
2019-01-03T01:18:47.195Z,3.15
2019-01-03T01:21:46.996Z,2.90
2019-01-03T01:24:49.327Z,3.58
2019-01-03T01:27:44.620Z,3.72
2019-01-03T01:30:44.108Z,3.85
2019-01-03T01:33:46.623Z,3.22
2019-01-03T01:36:46.109Z,3.30
2019-01-03T01:39:36.095Z,4.10
2019-01-03T01:42:36.146Z,3.80
2019-01-03T01:45:36.310Z,3.95
2019-01-03T01:48:36.461Z,3.50
2019-01-03T01:51:35.828Z,3.87
2019-01-03T01:54:35.297Z,3.80
2019-01-03T01:57:35.411Z,3.70
2019-01-03T02:00:32.547Z,3.80
2019-01-03T02:03:32.019Z,3.47
2019-01-03T02:06:37.486Z,3.52
2019-01-03T02:09:37.245Z,3.77
2019-01-03T02:12:41.039Z,4.05
2019-01-03T02:18:24.208Z,4.00
2019-01-03T02:21:23.728Z,4.37
2019-01-03T02:24:04.520Z,4.50
2019-01-03T02:26:58.525Z,4.00
2019-01-03T02:29:58.363Z,4.12
2019-01-03T02:32:52.643Z,4.70
2019-01-03T02:35:55.292Z,3.98
2019-01-03T02:38:55.330Z,4.40
2019-01-03T02:41:54.926Z,4.50
2019-01-03T02:44:48.924Z,4.10
2019-01-03T02:47:51.322Z,4.12
2019-01-03T02:50:51.032Z,3.92
2019-01-03T02:53:50.561Z,3.90
2019-01-03T02:56:50.115Z,3.40
2019-01-03T02:59:50.019Z,4.17
2019-01-03T03:02:49.824Z,4.10
2019-01-03T03:05:50.167Z,4.67
2019-01-03T03:08:42.231Z,4.05
2019-01-03T03:11:44.788Z,3.70
2019-01-03T03:14:44.253Z,4.10
2019-01-03T03:17:41.244Z,3.50
2019-01-03T03:20:41.415Z,4.00
2019-01-03T03:23:36.059Z,4.62
2019-01-03T03:26:25.532Z,4.00
2019-01-03T03:29:32.535Z,4.50
2019-01-03T03:32:33.321Z,3.80
2019-01-03T03:35:40.364Z,4.30
2019-01-03T03:38:47.383Z,4.00
2019-01-03T03:41:54.396Z,4.22
2019-01-03T03:45:01.646Z,3.87
2019-01-03T03:47:57.841Z,4.05
2019-01-03T03:50:57.647Z,4.30
2019-01-03T03:54:04.640Z,3.90
2019-01-03T03:57:11.650Z,3.72
2019-01-03T04:00:11.643Z,3.62
2019-01-03T04:03:18.630Z,3.60
2019-01-03T04:06:25.638Z,3.58
2019-01-03T04:09:32.651Z,3.67
2019-01-03T04:12:39.669Z,3.70
2019-01-03T04:15:46.671Z,3.37
2019-01-03T04:18:53.667Z,3.87
2019-01-03T04:22:00.702Z,4.15
2019-01-03T04:24:59.933Z,3.35
2019-01-03T04:28:07.131Z,4.70
2019-01-03T04:31:14.156Z,3.60
2019-01-03T04:37:25.003Z,3.77
2019-01-03T04:40:26.548Z,4.35
2019-01-03T04:43:33.553Z,3.87
2019-01-03T04:46:40.564Z,4.37
2019-01-03T04:49:47.573Z,4.10
2019-01-03T04:52:54.585Z,4.28
2019-01-03T04:56:02.070Z,5.40
2019-01-03T04:59:09.076Z,5.37
2019-01-03T05:02:16.081Z,5.10
2019-01-03T05:05:23.354Z,5.17
2019-01-03T05:08:30.344Z,5.55
2019-01-03T05:11:37.348Z,5.90
2019-01-03T05:14:44.358Z,5.60
2019-01-03T05:17:51.356Z,4.45
2019-01-03T05:20:58.696Z,5.58
2019-01-03T05:23:58.171Z,5.40
2019-01-03T05:27:02.384Z,5.35
2019-01-03T05:30:02.463Z,5.60
2019-01-03T05:33:02.057Z,5.42
2019-01-03T05:36:02.650Z,6.10
2019-01-03T05:39:02.479Z,6.15
2019-01-03T05:41:55.128Z,6.08
2019-01-03T05:44:52.268Z,6.20
2019-01-03T05:47:52.221Z,6.35
2019-01-03T05:50:51.750Z,6.08
2019-01-03T05:53:46.060Z,6.40
2019-01-03T05:56:45.976Z,7.12
2019-01-03T05:59:52.003Z,7.30
2019-01-03T06:02:51.831Z,6.62
2019-01-03T06:05:58.092Z,6.87
2019-01-03T06:08:52.711Z,6.50
2019-01-03T06:11:52.643Z,7.25
2019-01-03T06:14:52.895Z,7.00
2019-01-03T06:17:53.494Z,7.00
2019-01-03T06:20:53.436Z,7.62
2019-01-03T06:23:53.701Z,6.72
2019-01-03T06:26:57.241Z,7.03
2019-01-03T06:29:57.140Z,6.62
2019-01-03T06:32:57.020Z,8.45
2019-01-03T06:35:56.460Z,7.28
2019-01-03T06:38:56.745Z,7.80
2019-01-03T06:41:38.415Z,8.13
2019-01-03T06:44:38.716Z,7.58
2019-01-03T06:47:36.711Z,7.45
2019-01-03T06:50:35.989Z,7.12
2019-01-03T06:53:41.492Z,8.00
2019-01-03T06:56:41.775Z,8.00
2019-01-03T06:59:40.655Z,7.37
2019-01-03T07:02:40.108Z,7.90
2019-01-03T07:05:40.166Z,9.15
2019-01-03T07:08:45.738Z,7.37
2019-01-03T07:11:45.928Z,7.70
2019-01-03T07:14:48.546Z,8.08
2019-01-03T07:17:40.991Z,8.23
2019-01-03T07:20:40.860Z,7.35
2019-01-03T07:23:40.408Z,8.05
2019-01-03T07:26:39.785Z,8.33
2019-01-03T07:29:39.864Z,8.25
2019-01-03T07:32:40.214Z,8.25
2019-01-03T07:35:39.728Z,9.00
2019-01-03T07:38:39.129Z,8.40
2019-01-03T07:41:38.626Z,9.20
2019-01-03T07:44:38.945Z,9.73
2019-01-03T07:47:38.407Z,9.85
2019-01-03T07:50:38.026Z,9.45
2019-01-03T07:53:37.460Z,9.43
2019-01-03T07:56:38.971Z,9.73
2019-01-03T07:59:39.036Z,7.80
2019-01-03T08:02:38.433Z,8.90
2019-01-03T08:05:44.098Z,9.03
2019-01-03T08:08:43.932Z,8.78
2019-01-03T08:14:29.531Z,9.30
2019-01-03T08:17:29.771Z,8.68
2019-01-03T08:20:30.056Z,8.75
2019-01-03T08:23:35.547Z,8.85
2019-01-03T08:26:30.595Z,9.35
2019-01-03T08:29:30.022Z,7.70
2019-01-03T08:32:29.568Z,8.70
2019-01-03T08:35:29.342Z,8.90
2019-01-03T08:38:28.888Z,8.60
2019-01-03T08:41:28.219Z,9.45
2019-01-03T08:44:34.154Z,9.35
2019-01-03T08:47:33.619Z,10.10
2019-01-03T08:50:33.313Z,9.13
2019-01-03T08:53:32.865Z,9.10
2019-01-03T08:56:28.207Z,9.45
2019-01-03T08:59:18.513Z,8.95
2019-01-03T09:02:18.472Z,9.85
2019-01-03T09:05:17.871Z,9.38
2019-01-03T09:08:14.175Z,10.08
2019-01-03T09:11:14.155Z,9.58
2019-01-03T09:14:12.055Z,9.35
2019-01-03T09:17:11.408Z,10.15
2019-01-03T09:20:11.557Z,8.73
2019-01-03T09:23:10.862Z,9.03
2019-01-03T09:26:10.679Z,9.00
2019-01-03T09:29:05.218Z,9.28
2019-01-03T09:32:05.077Z,10.00
2019-01-03T09:35:04.675Z,9.33
2019-01-03T09:38:04.200Z,9.30
2019-01-03T09:41:04.383Z,9.18
2019-01-03T09:43:56.328Z,9.48
2019-01-03T09:49:20.683Z,8.50
2019-01-03T09:52:01.795Z,8.80
2019-01-03T09:54:42.492Z,8.85
2019-01-03T09:57:23.239Z,8.53
2019-01-03T10:00:03.947Z,8.20
2019-01-03T10:02:44.749Z,8.45
2019-01-03T10:05:25.577Z,7.55
2019-01-03T10:10:49.201Z,7.53
2019-01-03T10:13:29.674Z,7.70
2019-01-03T10:16:10.425Z,7.20
2019-01-03T10:18:51.097Z,7.00
2019-01-03T10:21:31.804Z,5.73
2019-01-03T10:24:12.430Z,5.73
2019-01-03T10:26:53.131Z,6.53
2019-01-03T10:29:33.864Z,5.33
2019-01-03T10:32:14.396Z,5.70
2019-01-03T10:34:55.228Z,6.20
2019-01-03T10:37:35.964Z,5.10
2019-01-03T10:40:16.752Z,5.70
2019-01-03T10:42:57.611Z,5.90
2019-01-03T10:45:38.462Z,7.10
2019-01-03T10:48:18.904Z,7.03
2019-01-03T10:53:42.356Z,8.07
2019-01-03T10:56:22.992Z,7.00
2019-01-03T10:59:03.617Z,7.43
2019-01-03T11:01:44.221Z,7.63
2019-01-03T11:04:25.065Z,8.40
2019-01-03T11:07:05.403Z,8.07
2019-01-03T11:09:46.189Z,7.90
2019-01-03T11:12:26.848Z,7.60
2019-01-03T11:15:07.764Z,5.30
2019-01-03T11:17:48.288Z,5.67
2019-01-03T11:20:29.239Z,5.47
2019-01-03T11:23:09.992Z,5.30
2019-01-03T11:25:50.419Z,5.83
2019-01-03T11:28:30.760Z,5.57
2019-01-03T11:31:11.196Z,5.20
2019-01-03T11:33:50.207Z,6.07
2019-01-03T11:36:38.097Z,6.10
2019-01-03T11:42:13.960Z,5.90
2019-01-03T11:44:54.224Z,6.10
2019-01-03T11:47:34.920Z,6.20
2019-01-03T11:50:18.329Z,6.30
2019-01-03T11:52:59.018Z,6.50
2019-01-03T11:55:39.915Z,5.70
2019-01-03T11:58:20.459Z,6.50
2019-01-03T12:01:00.908Z,6.23
2019-01-03T12:03:41.947Z,4.80
2019-01-03T12:06:22.504Z,5.10
2019-01-03T12:09:03.173Z,4.50
2019-01-03T12:11:44.022Z,4.30
2019-01-03T12:14:24.535Z,3.87
2019-01-03T12:17:05.127Z,4.27
2019-01-03T12:19:45.984Z,4.10
2019-01-03T12:22:26.476Z,4.20
2019-01-03T12:25:07.172Z,4.17
2019-01-03T12:27:47.777Z,3.70
2019-01-03T12:30:28.612Z,4.40
2019-01-03T12:33:08.894Z,4.40
2019-01-03T12:35:49.403Z,4.23
2019-01-03T12:38:30.175Z,4.07
2019-01-03T12:41:10.625Z,4.17
2019-01-03T12:43:50.974Z,5.07
2019-01-03T12:46:31.531Z,5.10
2019-01-03T12:49:11.937Z,5.30
2019-01-03T12:51:52.268Z,5.30
2019-01-03T12:54:32.748Z,6.60
2019-01-03T12:57:13.301Z,6.40
2019-01-03T12:59:53.670Z,5.33
2019-01-03T13:02:34.264Z,6.30
2019-01-03T13:05:14.969Z,6.93
2019-01-03T13:07:55.576Z,6.33
2019-01-03T13:10:36.328Z,6.10
2019-01-03T13:13:17.175Z,5.70
2019-01-03T13:15:57.681Z,5.07
2019-01-03T13:18:38.426Z,5.53
2019-01-03T13:21:19.007Z,5.90
2019-01-03T13:23:59.545Z,6.00
2019-01-03T13:26:40.215Z,5.20
2019-01-03T13:29:20.923Z,5.30
2019-01-03T13:32:01.382Z,5.40
2019-01-03T13:34:41.949Z,5.07
2019-01-03T13:37:22.491Z,5.73
2019-01-03T13:40:02.849Z,4.90
2019-01-03T13:42:43.404Z,5.40
2019-01-03T13:45:24.024Z,5.03
2019-01-03T13:48:04.223Z,5.03
2019-01-03T13:50:44.823Z,4.40
2019-01-03T13:53:25.361Z,4.67
2019-01-03T13:56:06.125Z,4.63
2019-01-03T13:58:47.186Z,4.87
2019-01-03T14:01:27.599Z,4.70
2019-01-03T14:04:08.251Z,5.03
2019-01-03T14:06:48.996Z,4.70
2019-01-03T14:09:29.363Z,4.30
2019-01-03T14:12:09.715Z,4.73
2019-01-03T14:14:50.304Z,3.83
2019-01-03T14:17:30.696Z,4.50
2019-01-03T14:20:11.244Z,4.60
2019-01-03T14:22:51.737Z,4.47
2019-01-03T14:25:32.475Z,4.80
2019-01-03T14:28:13.614Z,4.37
2019-01-03T14:30:54.270Z,5.30
2019-01-03T14:33:34.897Z,4.77
2019-01-03T14:36:15.416Z,4.50
2019-01-03T14:38:56.051Z,5.20
2019-01-03T14:41:36.891Z,4.80
2019-01-03T14:44:17.384Z,4.70
2019-01-03T14:46:57.923Z,4.60
2019-01-03T14:49:38.222Z,4.20
2019-01-03T14:52:18.759Z,4.97
2019-01-03T14:54:59.299Z,4.87
2019-01-03T14:57:40.163Z,5.00
2019-01-03T15:00:20.471Z,5.50
2019-01-03T15:03:01.192Z,5.07
2019-01-03T15:05:41.818Z,5.23
2019-01-03T15:08:22.730Z,5.50
2019-01-03T15:11:03.686Z,5.53
2019-01-03T15:13:44.299Z,5.50
2019-01-03T15:16:25.096Z,5.07
2019-01-03T15:19:05.888Z,5.50
2019-01-03T15:21:46.577Z,6.97
2019-01-03T15:27:10.492Z,5.90
2019-01-03T15:29:51.009Z,5.70
2019-01-03T15:32:31.901Z,6.40
2019-01-03T15:35:12.587Z,5.33
2019-01-03T15:37:53.303Z,6.20
2019-01-03T15:40:33.799Z,5.70
2019-01-03T15:43:14.647Z,6.50
2019-01-03T15:45:55.070Z,6.10
2019-01-03T15:51:18.825Z,6.20
2019-01-03T15:53:59.159Z,5.57
2019-01-03T15:56:40.513Z,5.90
2019-01-03T16:02:03.732Z,6.03
2019-01-03T16:04:45.002Z,5.90
2019-01-03T16:07:25.689Z,5.43
2019-01-03T16:10:06.057Z,5.13
2019-01-03T16:12:46.856Z,4.77
2019-01-03T16:15:27.683Z,5.40
2019-01-03T16:18:08.208Z,5.33
2019-01-03T16:20:48.652Z,5.57
2019-01-03T16:23:29.292Z,5.30
2019-01-03T16:26:09.664Z,6.07
2019-01-03T16:28:50.189Z,5.30
2019-01-03T16:31:30.894Z,5.43
2019-01-03T16:34:11.721Z,5.57
2019-01-03T16:36:52.345Z,6.63
2019-01-03T16:39:32.857Z,6.25
2019-01-03T16:42:13.698Z,5.83
2019-01-03T16:44:54.338Z,5.40
2019-01-03T16:47:34.890Z,5.63
2019-01-03T16:50:15.611Z,5.70
2019-01-03T16:52:56.252Z,6.90
2019-01-03T16:55:36.811Z,7.87
2019-01-03T16:58:17.591Z,6.10
2019-01-03T17:00:58.808Z,6.47
2019-01-03T17:03:39.704Z,5.80
2019-01-03T17:06:20.308Z,6.07
2019-01-03T17:09:00.856Z,5.50
2019-01-03T17:11:41.476Z,7.35
2019-01-03T17:14:21.799Z,6.33
2019-01-03T17:17:02.404Z,7.03
2019-01-03T17:19:43.171Z,6.60
2019-01-03T17:22:23.756Z,6.20
2019-01-03T17:25:04.214Z,6.37
2019-01-03T17:27:45.000Z,6.50
2019-01-03T17:30:25.380Z,7.17
2019-01-03T17:33:06.161Z,6.53
2019-01-03T17:35:46.912Z,7.17
2019-01-03T17:38:27.720Z,6.97
2019-01-03T17:41:08.533Z,6.45
2019-01-03T17:43:49.469Z,6.00
2019-01-03T17:49:12.312Z,6.67
2019-01-03T17:51:53.216Z,6.45
2019-01-03T17:54:33.781Z,7.73
2019-01-03T17:57:14.351Z,7.50
2019-01-03T17:59:54.926Z,7.00
2019-01-03T18:02:35.656Z,6.97
2019-01-03T18:05:16.288Z,7.17
2019-01-03T18:07:56.837Z,6.35
2019-01-03T18:10:37.365Z,6.35
2019-01-03T18:13:17.938Z,6.58
2019-01-03T18:15:58.701Z,6.75
2019-01-03T18:18:39.490Z,6.90
2019-01-03T18:21:19.964Z,6.55
2019-01-03T18:24:00.591Z,7.80
2019-01-03T18:26:41.320Z,7.42
2019-01-03T18:29:21.944Z,7.08
2019-01-03T18:32:02.589Z,7.05
2019-01-03T18:34:43.279Z,6.60
2019-01-03T18:37:23.801Z,7.33
2019-01-03T18:40:04.679Z,6.55
2019-01-03T18:42:45.078Z,7.30
2019-01-03T18:45:25.624Z,7.22
2019-01-03T18:48:05.982Z,6.80
2019-01-03T18:50:46.439Z,6.92
2019-01-03T18:53:26.915Z,7.47
2019-01-03T18:56:07.557Z,6.60
2019-01-03T18:58:48.171Z,6.80
2019-01-03T19:01:28.867Z,7.85
2019-01-03T19:04:09.645Z,8.08
2019-01-03T19:06:50.144Z,8.00
2019-01-03T19:09:30.538Z,8.03
2019-01-03T19:12:11.228Z,8.68
2019-01-03T19:14:50.271Z,8.20
2019-01-03T19:17:38.206Z,7.10
2019-01-03T19:20:26.073Z,8.48
2019-01-03T19:23:14.000Z,8.45
2019-01-03T19:26:01.971Z,8.18
2019-01-03T19:28:43.045Z,7.35
2019-01-03T19:31:23.764Z,7.97
2019-01-03T19:34:04.391Z,8.48
2019-01-03T19:36:45.007Z,8.35
2019-01-03T19:42:08.593Z,7.83
2019-01-03T19:44:49.272Z,8.80
2019-01-03T19:47:29.843Z,8.25
2019-01-03T19:50:10.704Z,9.13
2019-01-03T19:52:51.360Z,9.05
2019-01-03T19:55:32.111Z,7.78
2019-01-03T19:58:12.832Z,8.93
2019-01-03T20:00:53.571Z,8.90
2019-01-03T20:03:34.288Z,9.95
2019-01-03T20:06:15.237Z,9.30
2019-01-03T20:08:55.824Z,8.40
2019-01-03T20:11:36.746Z,8.70
2019-01-03T20:14:17.534Z,8.98
2019-01-03T20:16:57.987Z,8.85
2019-01-03T20:19:38.748Z,7.35
2019-01-03T20:22:19.879Z,8.25
2019-01-03T20:25:00.869Z,8.10
2019-01-03T20:27:41.355Z,7.67
2019-01-03T20:30:22.113Z,8.73
2019-01-03T20:33:03.076Z,7.50
2019-01-03T20:38:26.878Z,8.28
2019-01-03T20:41:07.676Z,8.48
2019-01-03T20:43:48.619Z,8.25
2019-01-03T20:46:29.438Z,8.73
2019-01-03T20:49:10.066Z,9.35
2019-01-03T20:51:50.735Z,9.35
2019-01-03T20:54:31.716Z,9.45
2019-01-03T20:57:12.380Z,8.35
2019-01-03T20:59:53.140Z,9.25
2019-01-03T21:02:33.799Z,8.68
2019-01-03T21:05:14.671Z,10.25
2019-01-03T21:07:55.165Z,9.95
2019-01-03T21:10:35.923Z,9.03
2019-01-03T21:13:17.337Z,10.50
2019-01-03T21:15:57.612Z,9.90
2019-01-03T21:18:38.119Z,9.53
2019-01-03T21:24:01.739Z,9.98
2019-01-03T21:26:42.759Z,10.93
2019-01-03T21:29:23.356Z,11.30
2019-01-03T21:32:03.884Z,11.25
2019-01-03T21:34:44.288Z,10.05
2019-01-03T21:37:24.884Z,10.28
2019-01-03T21:40:05.469Z,9.85
2019-01-03T21:42:46.567Z,10.90
2019-01-03T21:45:26.964Z,11.70
2019-01-03T21:48:07.704Z,10.70
2019-01-03T21:50:48.174Z,9.95
2019-01-03T21:53:28.791Z,10.23
2019-01-03T21:56:09.491Z,9.95
2019-01-03T21:58:49.995Z,9.88
2019-01-03T22:01:30.404Z,9.90
2019-01-03T22:04:10.753Z,9.05
2019-01-03T22:06:51.315Z,9.85
2019-01-03T22:09:32.068Z,10.08
2019-01-03T22:12:13.045Z,9.70
2019-01-03T22:14:53.544Z,10.78
2019-01-03T22:17:34.256Z,11.12
2019-01-03T22:20:14.837Z,10.70
2019-01-03T22:22:55.863Z,10.05
2019-01-03T22:25:36.525Z,10.23
2019-01-03T22:28:17.089Z,10.60
2019-01-03T22:30:58.296Z,10.13
2019-01-03T22:33:38.743Z,11.10
2019-01-03T22:36:19.391Z,10.20
2019-01-03T22:39:00.220Z,11.28
2019-01-03T22:41:40.661Z,10.15
2019-01-03T22:44:21.243Z,10.55
2019-01-03T22:47:01.812Z,10.40
2019-01-03T22:49:42.368Z,10.13
2019-01-03T22:55:04.227Z,9.98
2019-01-03T22:57:52.110Z,9.78
2019-01-03T23:03:55.933Z,9.80
2019-01-03T23:06:43.816Z,9.35
2019-01-03T23:09:24.482Z,10.72
2019-01-03T23:12:05.017Z,10.10
2019-01-03T23:14:45.609Z,10.48
2019-01-03T23:20:09.418Z,10.45
2019-01-03T23:22:50.076Z,10.60
2019-01-03T23:25:31.045Z,10.10
2019-01-03T23:28:11.668Z,10.13
2019-01-03T23:30:52.349Z,10.00
2019-01-03T23:33:33.119Z,10.60
2019-01-03T23:36:13.871Z,10.08
2019-01-03T23:38:54.248Z,11.22
2019-01-03T23:41:34.709Z,10.68
2019-01-03T23:44:15.504Z,11.18
2019-01-03T23:46:56.319Z,10.30
2019-01-03T23:49:37.227Z,11.48
2019-01-03T23:52:17.883Z,11.30
2019-01-03T23:54:58.760Z,12.23
2019-01-03T23:57:39.675Z,12.13
